Aérodrome :
LOGIN :

S'inscrire | Disclaimer

   EN    FR    IT 

 










Légende :    VFR   VFR Marginal   IFR   IFR Intensif   IFR Très Intensif
Visi : 
Plafond : 
>= 8 km
>= 3000ft
5 à 8 km
1000 à 3000 ft
1500m à 5 km
500 à 1000 ft
800 à 1500m
200 à 500 ft
< 800m
< 200 ft
Symboles :   Orages  Brouillard  Fortes neiges  Fortes précipitations  Vent > 20 kt
SIGMETs :   Divers  Orages  Givrage  Turbulence  Onde Orograph.  Cendres Volcan.







- Altitude de l'aérodrome : 230 ft


ETHB - Buckeburg Army

DERNIER METAR :
  • 261720Z 35004KT 9999 FEW030CB SCT200 10/M01 Q1011 BLU+BLU+ TEMPO GRN

METARs EXPIRÉS :
  • 261620Z 33008KT 9999 VCSH SCT030CB 09/M01 Q1012 BLU+BLU+ TEMPO GRN
  • 261520Z 31004KT 9999 FEW020CB SCT040 09/M00 Q1012 BLU+BLU+ TEMPO GRN
  • 261420Z 33010KT 9999 FEW020CB SCT041 09/01 Q1012 BLU+BLU+ TEMPO GRN

TAF TAF ETHB
Valide du 26 à 17h jusqu'au 27 à 02h UTC


261657Z 2617/2702 30007KT 9999 NSW SCT020 SCT040
TEMPO 2617/2618 32012G22KT 4000 SHRA SCT010 BKN015CB
PROB30 2621/2702 VRB03KT 2000 MIFG SKC
Pas de NOTAMs connus pour ce terrain.



MET'MAP, la Météo Aéronautique d'un coup d'oeil ! - Copyright ORBIFLY Décembre 2007 - Disclaimer

ORBIFLY MET'MAP TEAM :

Programmation & Développement : Alexandra Zaïnal
Conception & Développement : Baudouin d'Aumeries
Co-Programmation & Développement : Marc-Olivier Méhu
Soutien technique & logistique : Manuel Goepfert

Contact : metmap@orbifly.com




SOURCES & CREDITS :

   NOAA